Time;durP1;ratioP1;P1;durP2;ratioP2;P2;SDS_P1;SDS_P2;PMS_P1;PMS_P2;Temp;Humidity;BMP_temperature;BMP_pressure;BME280_temperature;BME280_humidity;BME280_pressure;Samples;Min_cycle;Max_cycle;Signal;HPM_P1;HPM_P2
2022/04/23 00:01:06;;;;;;;41.50;38.50;;;11.90;75.40;;;;;;5094755;28;20450;-73
2022/04/23 00:03:34;;;;;;;39.13;36.33;;;11.80;75.70;;;;;;5095413;28;20561;-74
2022/04/23 00:06:02;;;;;;;40.60;37.70;;;11.70;76.10;;;;;;5095022;28;20553;-74
2022/04/23 00:08:29;;;;;;;41.37;38.30;;;11.70;75.90;;;;;;5094877;28;20842;-73
2022/04/23 00:10:56;;;;;;;40.30;37.47;;;11.60;76.40;;;;;;5094525;28;20549;-73
2022/04/23 00:13:24;;;;;;;38.97;36.37;;;11.50;76.60;;;;;;5093525;28;20473;-74
2022/04/23 00:15:51;;;;;;;41.03;38.10;;;11.50;76.80;;;;;;5094951;28;20450;-73
2022/04/23 00:18:18;;;;;;;39.97;37.17;;;11.60;76.60;;;;;;5094808;28;20862;-74
2022/04/23 00:20:46;;;;;;;42.60;39.30;;;11.50;76.90;;;;;;5094035;28;20445;-74
2022/04/23 00:23:14;;;;;;;39.53;36.73;;;11.40;77.00;;;;;;5094991;28;20480;-74
2022/04/23 00:25:44;;;;;;;39.33;36.63;;;11.30;77.20;;;;;;5094648;28;20462;-73
2022/04/23 00:28:11;;;;;;;42.17;39.17;;;11.30;77.30;;;;;;5094741;28;20481;-73
2022/04/23 00:30:40;;;;;;;41.40;38.40;;;11.30;77.30;;;;;;5094235;28;20735;-73
2022/04/23 00:33:08;;;;;;;40.60;37.70;;;11.30;77.40;;;;;;5094467;28;20477;-73
2022/04/23 00:35:36;;;;;;;42.37;39.27;;;11.30;77.50;;;;;;5094733;28;20472;-73
2022/04/23 00:38:04;;;;;;;40.70;37.70;;;11.20;77.80;;;;;;5094400;28;20469;-73
2022/04/23 00:40:31;;;;;;;41.50;38.37;;;11.20;77.90;;;;;;5093924;28;20472;-73
2022/04/23 00:42:59;;;;;;;40.33;37.43;;;11.10;78.20;;;;;;5094496;28;20476;-73
2022/04/23 00:45:27;;;;;;;40.37;37.50;;;11.10;78.30;;;;;;5094412;28;20454;-73
2022/04/23 00:47:56;;;;;;;38.70;36.10;;;11.10;78.40;;;;;;5094263;28;20509;-74
2022/04/23 00:50:23;;;;;;;41.57;38.67;;;11.00;78.60;;;;;;5093665;28;20529;-73
2022/04/23 00:52:50;;;;;;;40.97;38.07;;;11.00;78.60;;;;;;5094067;28;20541;-74
2022/04/23 00:55:17;;;;;;;40.70;37.70;;;11.10;78.50;;;;;;5094209;28;20450;-73
2022/04/23 00:57:44;;;;;;;40.07;37.37;;;11.00;78.80;;;;;;5094026;28;20541;-73
2022/04/23 01:00:13;;;;;;;40.43;37.47;;;10.90;79.00;;;;;;5093677;28;20511;-74
2022/04/23 01:02:40;;;;;;;41.17;38.07;;;10.90;79.10;;;;;;5094005;28;20867;-73
2022/04/23 01:05:09;;;;;;;40.07;37.07;;;10.90;79.30;;;;;;5094280;28;20868;-73
2022/04/23 01:07:38;;;;;;;39.23;36.63;;;10.80;79.50;;;;;;5094005;28;20464;-73
2022/04/23 01:10:07;;;;;;;40.05;37.35;;;10.80;79.80;;;;;;5093497;28;20452;-73
2022/04/23 01:12:35;;;;;;;41.57;38.47;;;10.70;80.10;;;;;;5094631;28;20294;-74
2022/04/23 01:15:04;;;;;;;41.33;38.10;;;10.60;80.30;;;;;;5094648;28;20483;-73
2022/04/23 01:17:31;;;;;;;39.83;37.07;;;10.60;80.30;;;;;;5094568;28;20973;-74
2022/04/23 01:19:58;;;;;;;40.07;37.17;;;10.60;80.50;;;;;;5093987;28;20541;-73
2022/04/23 01:22:27;;;;;;;39.60;37.00;;;10.60;80.80;;;;;;5095862;28;21043;-74
2022/04/23 01:24:55;;;;;;;40.40;37.50;;;10.70;80.80;;;;;;5094786;28;20469;-73
2022/04/23 01:27:27;;;;;;;40.13;37.00;;;10.70;80.70;;;;;;5095266;28;20954;-74
2022/04/23 01:29:56;;;;;;;41.27;38.07;;;10.60;81.10;;;;;;5094048;28;20542;-73
2022/04/23 01:32:23;;;;;;;38.88;36.03;;;10.50;81.20;;;;;;5094875;28;20942;-73
2022/04/23 01:34:50;;;;;;;40.05;37.35;;;10.50;81.30;;;;;;5093674;28;20651;-73
2022/04/23 01:37:18;;;;;;;38.93;36.23;;;10.40;81.60;;;;;;5093441;28;20196;-73
2022/04/23 01:39:47;;;;;;;39.10;36.10;;;10.40;82.00;;;;;;5092819;28;20445;-73
2022/04/23 01:42:14;;;;;;;38.97;36.25;;;10.40;82.10;;;;;;5093369;28;20464;-73
2022/04/23 01:44:44;;;;;;;39.45;36.72;;;10.40;82.10;;;;;;5093175;28;20219;-73
2022/04/23 01:47:10;;;;;;;38.03;35.23;;;10.40;82.10;;;;;;5093109;28;20609;-73
2022/04/23 01:49:37;;;;;;;40.70;37.13;;;10.40;82.20;;;;;;5091647;28;20496;-73
2022/04/23 01:52:05;;;;;;;38.70;35.70;;;10.40;82.80;;;;;;5093220;28;20446;-74
2022/04/23 01:54:33;;;;;;;38.20;35.53;;;10.40;83.20;;;;;;5093416;28;20214;-73
2022/04/23 01:57:02;;;;;;;38.63;35.73;;;10.40;83.50;;;;;;5092899;28;20449;-73
2022/04/23 01:59:30;;;;;;;37.27;34.77;;;10.40;83.30;;;;;;5092494;28;20538;-73
2022/04/23 02:01:57;;;;;;;37.10;34.47;;;10.40;83.50;;;;;;5092925;28;20510;-73
2022/04/23 02:04:24;;;;;;;38.43;35.70;;;10.40;83.30;;;;;;5092970;28;20305;-73
2022/04/23 02:06:50;;;;;;;38.27;35.67;;;10.40;83.00;;;;;;5092824;28;20539;-74
2022/04/23 02:09:17;;;;;;;38.00;35.30;;;10.30;83.30;;;;;;5092312;28;20568;-73
2022/04/23 02:11:45;;;;;;;38.40;35.80;;;10.40;83.50;;;;;;5092710;28;20450;-73
2022/04/23 02:14:13;;;;;;;38.17;35.47;;;10.40;83.20;;;;;;5092603;28;20963;-73
2022/04/23 02:16:40;;;;;;;37.90;35.30;;;10.40;83.00;;;;;;5092798;28;20485;-73
2022/04/23 02:19:07;;;;;;;38.97;36.28;;;10.40;83.10;;;;;;5092444;28;20451;-73
2022/04/23 02:21:34;;;;;;;39.30;36.60;;;10.30;83.70;;;;;;5092114;28;20695;-73
2022/04/23 02:24:01;;;;;;;37.67;35.10;;;10.40;83.60;;;;;;5092681;28;21285;-73
2022/04/23 02:26:28;;;;;;;39.10;36.20;;;10.40;83.50;;;;;;5092309;28;20229;-73
2022/04/23 02:28:55;;;;;;;38.90;36.10;;;10.30;83.80;;;;;;5092409;28;20516;-73
2022/04/23 02:31:23;;;;;;;40.20;37.23;;;10.30;83.90;;;;;;5092157;28;20484;-73
2022/04/23 02:33:50;;;;;;;36.53;33.92;;;10.20;84.00;;;;;;5092573;28;20469;-73
2022/04/23 02:36:16;;;;;;;38.80;36.00;;;10.20;84.10;;;;;;5091757;28;20200;-73
2022/04/23 02:38:43;;;;;;;39.83;36.92;;;10.20;84.00;;;;;;5092405;28;20456;-73
2022/04/23 02:41:11;;;;;;;37.10;34.30;;;10.10;84.10;;;;;;5091732;28;20194;-73
2022/04/23 02:43:40;;;;;;;36.97;34.50;;;10.10;84.50;;;;;;5092467;28;20238;-73
2022/04/23 02:46:07;;;;;;;38.00;35.22;;;10.10;84.70;;;;;;5092235;28;20200;-73
2022/04/23 02:48:35;;;;;;;38.55;35.75;;;10.00;84.60;;;;;;5092284;28;20229;-73
2022/04/23 02:51:03;;;;;;;40.45;37.65;;;10.00;84.80;;;;;;5091692;28;20287;-73
2022/04/23 02:53:29;;;;;;;39.15;36.35;;;9.90;85.30;;;;;;5092150;28;20225;-73
2022/04/23 02:55:57;;;;;;;38.85;36.22;;;9.90;85.40;;;;;;5092164;28;20206;-73
2022/04/23 02:58:25;;;;;;;37.17;34.65;;;9.90;85.20;;;;;;5092055;28;20665;-73
2022/04/23 03:00:53;;;;;;;40.58;37.30;;;9.80;85.30;;;;;;5091675;28;20245;-73
2022/04/23 03:03:21;;;;;;;37.92;34.95;;;9.80;85.50;;;;;;5092113;28;20227;-73
2022/04/23 03:05:53;;;;;;;39.33;36.53;;;9.80;85.70;;;;;;5091980;28;20234;-73
2022/04/23 03:08:23;;;;;;;39.03;36.25;;;9.80;85.60;;;;;;5091931;28;20789;-73
2022/04/23 03:10:51;;;;;;;39.15;36.28;;;9.80;85.60;;;;;;5091626;28;20284;-73
2022/04/23 03:13:17;;;;;;;39.50;36.60;;;9.70;86.00;;;;;;5092060;28;20222;-74
2022/04/23 03:15:46;;;;;;;38.97;36.08;;;9.70;86.20;;;;;;5092074;28;20202;-73
2022/04/23 03:18:14;;;;;;;38.17;35.47;;;9.70;86.20;;;;;;5092088;28;20203;-73
2022/04/23 03:20:42;;;;;;;40.13;36.78;;;9.70;86.10;;;;;;5091220;28;20689;-73
2022/04/23 03:23:11;;;;;;;40.25;37.35;;;9.60;86.10;;;;;;5091972;28;20662;-73
2022/04/23 03:25:38;;;;;;;37.60;34.75;;;9.60;86.10;;;;;;5091687;28;20198;-73
2022/04/23 03:28:06;;;;;;;40.80;37.70;;;9.50;86.20;;;;;;5091840;28;20192;-73
2022/04/23 03:30:33;;;;;;;38.67;35.78;;;9.40;86.40;;;;;;5091559;28;20291;-73
2022/04/23 03:33:00;;;;;;;40.08;37.15;;;9.40;86.50;;;;;;5091854;28;20303;-73
2022/04/23 03:35:27;;;;;;;41.30;38.45;;;9.40;86.70;;;;;;5091848;28;20244;-73
2022/04/23 03:37:55;;;;;;;40.38;37.47;;;9.40;86.90;;;;;;5091810;28;20200;-73
2022/04/23 03:40:24;;;;;;;40.25;37.40;;;9.30;87.00;;;;;;5091303;28;20245;-73
2022/04/23 03:42:51;;;;;;;40.25;37.25;;;9.30;87.00;;;;;;5091844;28;20195;-73
2022/04/23 03:45:19;;;;;;;40.97;38.00;;;9.30;87.10;;;;;;5091901;28;20200;-73
2022/04/23 03:47:47;;;;;;;40.63;37.58;;;9.20;87.30;;;;;;5092767;28;20271;-73
2022/04/23 03:50:15;;;;;;;42.25;39.05;;;9.20;87.50;;;;;;5094912;28;20310;-73
2022/04/23 03:52:42;;;;;;;41.60;38.17;;;9.20;87.60;;;;;;5095378;28;20200;-73
2022/04/23 03:55:11;;;;;;;39.67;36.83;;;9.20;87.90;;;;;;5095547;28;20188;-73
2022/04/23 03:57:50;;;;;;;41.60;38.50;;;9.20;87.80;;;;;;5095254;28;20198;-73
2022/04/23 04:00:19;;;;;;;41.15;38.25;;;9.20;88.00;;;;;;5094905;28;20207;-73
2022/04/23 04:02:46;;;;;;;42.58;39.55;;;9.20;88.60;;;;;;5095286;28;20191;-73
2022/04/23 04:05:14;;;;;;;43.92;40.47;;;9.30;88.80;;;;;;5095382;28;20202;-73
2022/04/23 04:07:45;;;;;;;41.05;38.08;;;9.40;88.50;;;;;;5095201;28;20235;-73
2022/04/23 04:10:13;;;;;;;42.13;39.13;;;9.40;88.30;;;;;;5094470;28;20706;-73
2022/04/23 04:12:40;;;;;;;40.38;37.40;;;9.40;88.20;;;;;;5095077;28;20206;-73
2022/04/23 04:15:10;;;;;;;40.42;37.42;;;9.40;87.90;;;;;;5095063;28;20293;-73
2022/04/23 04:17:38;;;;;;;40.50;37.45;;;9.40;88.00;;;;;;5095071;28;20200;-73
2022/04/23 04:20:11;;;;;;;41.20;37.97;;;9.40;87.90;;;;;;5094118;28;20628;-73
2022/04/23 04:22:38;;;;;;;39.45;36.55;;;9.40;88.30;;;;;;5095050;28;20227;-73
2022/04/23 04:25:07;;;;;;;38.67;35.78;;;9.40;88.40;;;;;;5094761;28;20677;-73
2022/04/23 04:27:34;;;;;;;40.00;36.97;;;9.40;88.70;;;;;;5094836;28;20771;-73
2022/04/23 04:30:02;;;;;;;39.45;36.65;;;9.50;88.50;;;;;;5093966;28;20234;-73
2022/04/23 04:32:30;;;;;;;40.13;37.22;;;9.60;88.30;;;;;;5094827;28;20205;-73
2022/04/23 04:34:57;;;;;;;41.10;38.25;;;9.70;88.10;;;;;;5094839;28;20211;-73
2022/04/23 04:37:24;;;;;;;38.38;35.67;;;9.70;88.30;;;;;;5094870;28;20206;-73
2022/04/23 04:39:51;;;;;;;36.47;33.95;;;9.70;88.00;;;;;;5093914;28;20312;-73
2022/04/23 04:42:18;;;;;;;34.85;32.35;;;9.80;87.20;;;;;;5094702;28;20756;-73
2022/04/23 04:44:45;;;;;;;36.67;34.28;;;9.90;86.70;;;;;;5094350;28;20579;-73
2022/04/23 04:47:11;;;;;;;36.03;33.60;;;9.90;86.10;;;;;;5094618;28;20653;-73
2022/04/23 04:49:40;;;;;;;35.22;32.72;;;10.00;86.00;;;;;;5093805;28;20588;-73
2022/04/23 04:52:07;;;;;;;34.88;32.45;;;10.00;86.30;;;;;;5094498;28;20202;-73
2022/04/23 04:54:35;;;;;;;35.60;33.17;;;10.00;86.20;;;;;;5094173;28;20652;-73
2022/04/23 04:57:02;;;;;;;36.88;34.40;;;10.00;86.00;;;;;;5094381;28;20206;-73
2022/04/23 04:59:31;;;;;;;35.45;33.15;;;10.10;85.80;;;;;;5092804;28;20196;-73
2022/04/23 05:01:59;;;;;;;34.17;31.93;;;10.10;85.70;;;;;;5094196;28;20198;-74
2022/04/23 05:04:26;;;;;;;34.93;32.63;;;10.30;85.00;;;;;;5093892;28;20477;-73
2022/04/23 05:06:54;;;;;;;35.70;33.30;;;10.30;84.60;;;;;;5093966;28;20953;-73
2022/04/23 05:09:21;;;;;;;35.87;33.40;;;10.40;84.40;;;;;;5093280;28;20484;-73
2022/04/23 05:11:48;;;;;;;36.58;33.72;;;10.50;83.90;;;;;;5094144;28;20815;-73
2022/04/23 05:14:16;;;;;;;35.87;33.57;;;10.50;83.70;;;;;;5093746;28;20216;-73
2022/04/23 05:16:43;;;;;;;35.20;32.90;;;10.60;83.30;;;;;;5093950;28;20449;-73
2022/04/23 05:19:10;;;;;;;36.33;33.77;;;10.80;82.60;;;;;;5093157;28;20453;-73
2022/04/23 05:21:37;;;;;;;36.80;34.40;;;10.80;82.20;;;;;;5093234;28;20823;-73
2022/04/23 05:24:07;;;;;;;36.57;33.87;;;10.80;82.20;;;;;;5093789;28;20560;-73
2022/04/23 05:26:35;;;;;;;34.57;32.23;;;10.80;82.20;;;;;;5093746;28;20469;-73
2022/04/23 05:29:02;;;;;;;34.97;32.57;;;10.90;81.60;;;;;;5093428;28;20471;-73
2022/04/23 05:31:29;;;;;;;37.77;34.87;;;11.00;81.30;;;;;;5093296;28;20792;-73
2022/04/23 05:33:56;;;;;;;34.00;31.70;;;10.90;81.80;;;;;;5093357;28;20557;-73
2022/04/23 05:36:23;;;;;;;36.70;34.10;;;11.00;81.60;;;;;;5093528;28;20804;-73
2022/04/23 05:38:50;;;;;;;34.67;32.37;;;11.00;81.00;;;;;;5093332;28;20998;-73
2022/04/23 05:41:18;;;;;;;36.13;33.63;;;11.00;81.10;;;;;;5093043;28;20449;-73
2022/04/23 05:43:45;;;;;;;36.27;33.67;;;10.90;81.70;;;;;;5093328;28;20552;-73
2022/04/23 05:46:12;;;;;;;35.80;33.30;;;11.10;81.30;;;;;;5093352;28;20456;-74
2022/04/23 05:48:39;;;;;;;35.30;32.90;;;11.00;81.30;;;;;;5093026;28;20489;-74
2022/04/23 05:51:06;;;;;;;34.77;32.37;;;11.10;81.20;;;;;;5092866;28;21073;-73
2022/04/23 05:53:33;;;;;;;36.20;33.73;;;11.20;81.10;;;;;;5093089;28;20472;-74
2022/04/23 05:56:00;;;;;;;36.73;34.33;;;11.30;80.50;;;;;;5093169;28;20458;-73
2022/04/23 05:58:28;;;;;;;35.37;32.97;;;11.50;79.60;;;;;;5092763;28;20536;-73
2022/04/23 06:00:56;;;;;;;36.13;33.53;;;11.40;79.90;;;;;;5092390;28;20541;-74
2022/04/23 06:03:22;;;;;;;34.93;32.43;;;11.50;79.90;;;;;;5092804;28;20470;-74
2022/04/23 06:05:50;;;;;;;35.00;32.60;;;11.50;79.70;;;;;;5093073;28;20533;-73
2022/04/23 06:08:17;;;;;;;35.40;32.90;;;11.60;79.10;;;;;;5092805;28;20460;-73
2022/04/23 06:10:44;;;;;;;34.80;32.50;;;11.60;78.60;;;;;;5092123;28;20561;-73
2022/04/23 06:13:11;;;;;;;35.97;33.33;;;11.50;79.40;;;;;;5092694;28;20472;-73
2022/04/23 06:15:42;;;;;;;35.60;33.20;;;11.60;79.00;;;;;;5092693;28;20897;-74
2022/04/23 06:18:09;;;;;;;35.70;33.30;;;11.60;79.10;;;;;;5092655;28;20927;-73
2022/04/23 06:20:36;;;;;;;35.97;33.57;;;11.60;78.90;;;;;;5091793;28;20928;-74
2022/04/23 06:23:04;;;;;;;34.13;31.90;;;11.50;78.70;;;;;;5092558;28;20889;-73
2022/04/23 06:25:32;;;;;;;34.77;32.43;;;11.50;78.70;;;;;;5092435;28;20446;-73
2022/04/23 06:27:59;;;;;;;35.63;33.33;;;11.60;78.50;;;;;;5092678;28;20453;-74
2022/04/23 06:30:26;;;;;;;37.23;34.83;;;11.70;78.10;;;;;;5091993;28;20519;-73
2022/04/23 06:32:55;;;;;;;34.17;31.87;;;11.80;77.70;;;;;;5092423;28;20548;-74
2022/04/23 06:35:22;;;;;;;34.43;32.10;;;11.80;77.60;;;;;;5092621;28;20537;-74
2022/04/23 06:37:49;;;;;;;34.07;31.77;;;11.80;77.20;;;;;;5092439;28;20518;-73
2022/04/23 06:40:16;;;;;;;32.47;30.40;;;11.90;76.80;;;;;;5091910;28;20504;-73
2022/04/23 06:42:43;;;;;;;34.20;32.10;;;11.90;76.60;;;;;;5092335;28;20544;-73
2022/04/23 06:45:11;;;;;;;32.43;30.33;;;11.90;76.60;;;;;;5092371;28;20454;-74
2022/04/23 06:47:38;;;;;;;31.93;29.93;;;11.90;76.20;;;;;;5092417;28;20450;-74
2022/04/23 06:50:08;;;;;;;34.27;32.07;;;11.90;76.30;;;;;;5091864;28;20562;-73
2022/04/23 06:52:35;;;;;;;32.60;30.60;;;11.90;76.20;;;;;;5092303;28;20492;-74
2022/04/23 06:55:02;;;;;;;32.40;30.40;;;12.00;76.20;;;;;;5092404;28;20810;-74
2022/04/23 06:57:29;;;;;;;32.50;30.40;;;12.20;75.10;;;;;;5092083;28;20969;-73
2022/04/23 06:59:59;;;;;;;31.73;29.73;;;12.20;74.60;;;;;;5091862;28;20446;-73
2022/04/23 07:02:26;;;;;;;33.10;30.90;;;12.00;75.00;;;;;;5092255;28;20532;-73
2022/04/23 07:04:53;;;;;;;32.17;30.17;;;12.00;75.40;;;;;;5092449;28;20804;-73
2022/04/23 07:07:21;;;;;;;31.20;29.23;;;12.30;74.90;;;;;;5092121;28;20462;-73
2022/04/23 07:09:48;;;;;;;31.37;29.47;;;12.50;73.90;;;;;;5091638;28;20898;-74
2022/04/23 07:12:15;;;;;;;35.87;33.77;;;12.30;74.20;;;;;;5092187;28;21041;-74
2022/04/23 07:14:42;;;;;;;31.70;29.60;;;12.30;74.10;;;;;;5092083;28;20838;-74
2022/04/23 07:17:10;;;;;;;33.50;31.30;;;12.40;73.80;;;;;;5091847;28;20460;-73
2022/04/23 07:19:39;;;;;;;33.03;31.00;;;12.60;73.40;;;;;;5092053;28;20957;-74
2022/04/23 07:22:06;;;;;;;33.67;31.60;;;12.70;73.20;;;;;;5091544;28;21053;-73
2022/04/23 07:24:34;;;;;;;32.60;30.50;;;12.90;72.40;;;;;;5095862;28;20897;-74
2022/04/23 07:27:01;;;;;;;34.63;32.30;;;12.90;72.00;;;;;;5095726;28;20458;-74
2022/04/23 07:29:31;;;;;;;32.70;30.60;;;12.70;72.20;;;;;;5095518;28;20446;-74
2022/04/23 07:32:11;;;;;;;32.70;30.70;;;12.60;73.10;;;;;;5096077;28;20540;-74
2022/04/23 07:37:33;;;;;;;34.40;32.13;;;13.10;71.80;;;;;;5097047;28;20429;-74
2022/04/23 07:40:02;;;;;;;33.83;31.77;;;13.10;71.50;;;;;;5096653;28;21034;-73
2022/04/23 07:42:29;;;;;;;31.97;29.97;;;13.10;71.60;;;;;;5095981;28;20452;-73
2022/04/23 07:44:56;;;;;;;33.53;31.43;;;13.40;73.20;;;;;;5096124;28;20477;-73
2022/04/23 07:47:23;;;;;;;32.90;30.80;;;13.50;71.00;;;;;;5095627;28;20457;-74
2022/04/23 07:49:51;;;;;;;31.93;29.93;;;13.70;69.60;;;;;;5094906;28;20531;-73
2022/04/23 07:52:18;;;;;;;31.90;29.83;;;13.90;69.40;;;;;;5095637;28;20895;-73
2022/04/23 07:54:45;;;;;;;31.43;29.33;;;14.20;68.50;;;;;;5095378;28;20561;-74
2022/04/23 07:57:13;;;;;;;32.00;29.90;;;14.40;68.20;;;;;;5095384;28;20904;-74
2022/04/23 07:59:41;;;;;;;31.13;29.20;;;14.60;67.10;;;;;;5094767;28;20457;-74
2022/04/23 08:02:09;;;;;;;30.60;28.60;;;14.50;67.00;;;;;;5095259;28;20456;-74
2022/04/23 08:04:35;;;;;;;31.77;29.67;;;14.70;66.70;;;;;;5095333;28;20509;-74
2022/04/23 08:07:02;;;;;;;31.00;29.10;;;14.80;66.00;;;;;;5095397;28;20810;-74
2022/04/23 08:09:29;;;;;;;32.00;30.07;;;14.80;66.40;;;;;;5094468;28;20811;-74
2022/04/23 08:11:56;;;;;;;30.27;28.47;;;15.10;65.70;;;;;;5095154;28;20469;-74
2022/04/23 08:14:24;;;;;;;30.63;28.73;;;15.10;65.50;;;;;;5095091;28;20496;-74
2022/04/23 08:16:52;;;;;;;30.80;28.87;;;15.50;65.10;;;;;;5095072;28;20939;-74
2022/04/23 08:19:19;;;;;;;30.43;28.63;;;15.60;64.00;;;;;;5094399;28;20458;-74
2022/04/23 08:21:46;;;;;;;30.10;28.20;;;15.80;63.70;;;;;;5094280;28;20556;-74
2022/04/23 08:24:13;;;;;;;32.03;29.93;;;15.60;63.40;;;;;;5094995;28;20505;-74
2022/04/23 08:26:40;;;;;;;31.90;29.80;;;15.70;63.60;;;;;;5094494;28;20461;-74
2022/04/23 08:31:53;;;;;;;30.27;28.40;;;15.50;63.50;;;;;;5094610;28;20492;-74
2022/04/23 08:34:20;;;;;;;32.27;30.27;;;15.20;64.50;;;;;;5093761;28;20465;-74
2022/04/23 08:36:49;;;;;;;32.10;30.03;;;15.00;65.20;;;;;;5094676;28;20853;-73
2022/04/23 08:39:16;;;;;;;35.47;33.37;;;14.90;65.50;;;;;;5094146;28;20453;-74
2022/04/23 08:41:46;;;;;;;33.50;31.40;;;15.20;64.90;;;;;;5094597;28;20544;-74
2022/04/23 08:44:13;;;;;;;30.47;28.67;;;15.00;65.30;;;;;;5094637;28;20475;-74
2022/04/23 08:46:41;;;;;;;56.27;33.77;;;14.90;65.20;;;;;;5094352;28;20941;-74
2022/04/23 08:49:13;;;;;;;31.90;29.80;;;15.40;65.00;;;;;;5094205;28;20454;-74
2022/04/23 08:51:43;;;;;;;32.47;30.30;;;15.80;63.60;;;;;;5094270;28;20481;-74
2022/04/23 08:54:11;;;;;;;32.30;30.30;;;15.50;63.70;;;;;;5094120;28;20477;-74
2022/04/23 08:56:40;;;;;;;31.13;29.10;;;15.40;63.70;;;;;;5094300;28;20453;-74
2022/04/23 08:59:08;;;;;;;41.60;33.60;;;15.40;63.90;;;;;;5093955;28;20457;-74
2022/04/23 09:01:36;;;;;;;32.43;29.97;;;15.70;63.90;;;;;;5094415;28;20488;-74
2022/04/23 09:04:04;;;;;;;32.03;29.70;;;16.20;62.90;;;;;;5093857;28;20556;-74
2022/04/23 09:06:37;;;;;;;33.87;30.83;;;16.40;61.80;;;;;;5094041;28;20478;-74
2022/04/23 09:09:15;;;;;;;33.50;31.00;;;16.30;62.30;;;;;;5093840;28;20992;-74
2022/04/23 09:11:44;;;;;;;33.67;31.57;;;16.20;62.20;;;;;;5094055;28;20473;-75
2022/04/23 09:14:24;;;;;;;33.23;31.03;;;16.40;61.90;;;;;;5093964;28;20477;-75
2022/04/23 09:25:10;;;;;;;35.00;32.57;;;16.50;61.20;;;;;;5093774;28;20432;-75
2022/04/23 09:27:38;;;;;;;31.93;29.93;;;16.80;61.10;;;;;;5093708;28;20456;-75
2022/04/23 09:30:06;;;;;;;33.60;31.23;;;17.20;60.00;;;;;;5093128;28;20472;-75
2022/04/23 09:32:34;;;;;;;33.83;31.20;;;17.20;59.80;;;;;;5093722;28;20454;-75
2022/04/23 09:35:09;;;;;;;34.67;32.67;;;17.60;59.70;;;;;;5093641;28;20441;-75
2022/04/23 09:40:24;;;;;;;32.90;30.70;;;17.70;58.40;;;;;;5092823;28;20430;-75
2022/04/23 09:42:58;;;;;;;31.77;29.70;;;17.40;58.60;;;;;;5093479;28;20532;-75
2022/04/23 09:45:26;;;;;;;31.70;29.70;;;17.10;59.00;;;;;;5093006;28;20453;-75
2022/04/23 09:47:54;;;;;;;32.77;30.77;;;17.20;59.30;;;;;;5093383;28;20442;-75
2022/04/23 09:50:21;;;;;;;32.40;30.30;;;17.30;59.40;;;;;;5092494;28;20781;-75
2022/04/23 09:52:50;;;;;;;33.00;30.30;;;17.20;59.20;;;;;;5093315;28;20493;-75
2022/04/23 09:55:19;;;;;;;36.90;30.43;;;17.00;59.90;;;;;;5093285;28;20481;-75
2022/04/23 09:57:48;;;;;;;30.90;28.80;;;17.10;60.20;;;;;;5093266;28;20449;-75
2022/04/23 10:00:15;;;;;;;30.70;28.50;;;17.20;59.80;;;;;;5092506;28;20529;-75
2022/04/23 10:02:45;;;;;;;35.70;33.17;;;17.30;59.20;;;;;;5092949;28;20544;-75
2022/04/23 10:05:16;;;;;;;38.03;33.20;;;17.40;59.30;;;;;;5092973;28;20456;-75
2022/04/23 10:07:50;;;;;;;37.57;34.23;;;17.50;59.30;;;;;;5092976;28;20453;-75
2022/04/23 10:10:19;;;;;;;31.97;30.07;;;17.70;58.80;;;;;;5092257;28;20482;-75
2022/04/23 10:12:51;;;;;;;30.70;28.70;;;17.50;58.50;;;;;;5092936;28;20460;-75
2022/04/23 10:15:18;;;;;;;32.40;30.20;;;17.30;59.10;;;;;;5092728;28;20449;-75
2022/04/23 10:17:46;;;;;;;31.40;29.40;;;17.30;58.80;;;;;;5092714;28;20548;-75
2022/04/23 10:20:14;;;;;;;30.67;28.70;;;17.00;59.50;;;;;;5091843;28;20456;-75
2022/04/23 10:23:01;;;;;;;31.90;29.80;;;16.90;59.80;;;;;;5092705;28;20480;-75
2022/04/23 10:25:36;;;;;;;31.53;29.63;;;17.00;59.40;;;;;;5092080;28;20540;-75
2022/04/23 10:28:04;;;;;;;29.50;27.80;;;16.50;60.10;;;;;;5092563;28;20837;-75
2022/04/23 10:30:32;;;;;;;29.57;27.53;;;16.40;60.80;;;;;;5091963;28;20446;-75
2022/04/23 10:33:27;;;;;;;31.17;29.47;;;16.60;60.90;;;;;;5092421;28;20476;-75
2022/04/23 10:36:08;;;;;;;28.13;26.53;;;16.80;60.20;;;;;;5092697;28;20536;-75
2022/04/23 10:38:42;;;;;;;27.87;26.17;;;16.50;60.90;;;;;;5092392;28;20450;-75
2022/04/23 10:41:11;;;;;;;29.47;27.77;;;16.60;60.60;;;;;;5092264;28;20441;-75
2022/04/23 10:43:47;;;;;;;30.70;28.90;;;16.70;60.20;;;;;;5092447;28;20483;-75
2022/04/23 10:46:47;;;;;;;29.20;27.40;;;16.60;60.40;;;;;;5092472;28;20524;-75
2022/04/23 10:49:17;;;;;;;29.10;27.33;;;16.70;60.60;;;;;;5091875;28;21000;-75
2022/04/23 10:51:49;;;;;;;28.47;26.77;;;16.90;59.40;;;;;;5092491;28;20572;-75
2022/04/23 10:54:19;;;;;;;27.90;26.03;;;16.50;60.70;;;;;;5092439;28;20553;-75
2022/04/23 10:56:50;;;;;;;28.50;26.80;;;16.50;60.70;;;;;;5092267;28;20450;-75
2022/04/23 10:59:42;;;;;;;31.30;29.40;;;16.20;61.30;;;;;;5091377;28;20454;-75
2022/04/23 11:02:31;;;;;;;28.97;27.10;;;16.40;61.40;;;;;;5092323;28;20458;-75
2022/04/23 11:13:27;;;;;;;28.60;26.90;;;16.80;60.40;;;;;;5092060;28;20450;-75
2022/04/23 11:16:11;;;;;;;29.27;27.47;;;16.50;60.50;;;;;;5092212;28;20454;-75
2022/04/23 11:18:38;;;;;;;30.40;28.50;;;16.40;61.40;;;;;;5092195;28;20819;-75
2022/04/23 11:21:23;;;;;;;30.30;28.40;;;16.20;61.50;;;;;;5092229;28;21245;-75
2022/04/23 11:23:51;;;;;;;30.53;28.53;;;16.20;61.90;;;;;;5093136;28;20903;-75
2022/04/23 11:26:22;;;;;;;29.77;27.87;;;16.10;62.00;;;;;;5091972;28;20466;-75
2022/04/23 11:28:58;;;;;;;30.07;28.20;;;16.10;62.00;;;;;;5091909;28;20460;-75
2022/04/23 11:31:25;;;;;;;31.33;29.33;;;15.90;62.40;;;;;;5091605;28;20586;-75
2022/04/23 11:33:54;;;;;;;29.43;27.73;;;15.90;62.50;;;;;;5091920;28;20556;-75
2022/04/23 11:36:26;;;;;;;33.63;31.53;;;15.80;62.80;;;;;;5091881;28;20525;-75
2022/04/23 11:38:53;;;;;;;32.90;30.90;;;15.80;62.70;;;;;;5091787;28;20485;-75
2022/04/23 11:41:32;;;;;;;29.67;27.77;;;15.70;63.30;;;;;;5091533;28;20850;-75
2022/04/23 11:44:11;;;;;;;29.70;27.87;;;15.70;63.50;;;;;;5092070;28;20473;-75
2022/04/23 11:46:42;;;;;;;30.43;28.53;;;15.80;63.20;;;;;;5091878;28;20453;-75
2022/04/23 11:49:09;;;;;;;28.90;27.10;;;16.10;62.20;;;;;;5091190;28;20457;-75
2022/04/23 11:51:40;;;;;;;35.00;31.90;;;16.00;62.20;;;;;;5091656;28;20477;-75
2022/04/23 11:54:07;;;;;;;30.83;28.83;;;16.10;62.60;;;;;;5091844;28;20473;-75
2022/04/23 11:56:36;;;;;;;30.87;29.00;;;16.30;61.90;;;;;;5091831;28;20492;-75
2022/04/23 11:59:05;;;;;;;30.70;28.90;;;16.40;61.70;;;;;;5091323;28;20449;-75
2022/04/23 12:01:33;;;;;;;31.10;29.00;;;16.30;61.90;;;;;;5093047;28;20461;-80
2022/04/23 12:04:00;;;;;;;30.83;28.83;;;16.30;62.00;;;;;;5094056;28;21013;-76
2022/04/23 12:06:28;;;;;;;31.60;29.60;;;16.40;61.60;;;;;;5091751;28;20950;-75
2022/04/23 12:09:07;;;;;;;30.77;28.77;;;16.30;61.60;;;;;;5092778;28;20458;-75
2022/04/23 12:11:35;;;;;;;31.70;29.50;;;16.20;62.20;;;;;;5095219;28;20531;-75
2022/04/23 12:14:03;;;;;;;30.60;28.47;;;16.10;62.30;;;;;;5095094;28;20477;-75
2022/04/23 12:16:35;;;;;;;31.00;29.10;;;16.20;62.20;;;;;;5095121;28;20507;-75
2022/04/23 12:19:03;;;;;;;32.77;30.57;;;16.40;61.70;;;;;;5094883;28;20454;-75
2022/04/23 12:21:30;;;;;;;29.80;27.90;;;16.50;61.60;;;;;;5094105;28;20475;-75
2022/04/23 12:23:57;;;;;;;31.57;29.67;;;16.50;61.50;;;;;;5094911;28;21033;-75
2022/04/23 12:26:24;;;;;;;30.20;28.30;;;16.60;61.40;;;;;;5094438;28;20497;-75
2022/04/23 12:43:23;;;;;;;34.23;32.23;;;17.00;60.90;;;;;;5094757;28;20468;-75
2022/04/23 12:46:05;;;;;;;30.73;28.53;;;17.10;60.30;;;;;;5094635;28;20486;-75
2022/04/23 12:48:33;;;;;;;30.93;28.70;;;16.90;60.60;;;;;;5094626;28;20884;-75
2022/04/23 12:51:06;;;;;;;31.50;29.43;;;17.10;59.90;;;;;;5094100;28;20484;-75
2022/04/23 12:53:34;;;;;;;30.83;28.93;;;17.10;60.10;;;;;;5094189;28;21057;-75
2022/04/23 12:56:04;;;;;;;31.73;29.73;;;16.80;60.70;;;;;;5094187;28;20456;-75
2022/04/23 12:58:32;;;;;;;30.87;28.87;;;16.60;61.30;;;;;;5094402;28;20453;-75
2022/04/23 13:01:00;;;;;;;31.93;30.10;;;16.50;61.40;;;;;;5093686;28;20541;-75
2022/04/23 13:03:35;;;;;;;31.67;29.77;;;16.40;62.10;;;;;;5094054;28;20473;-75
2022/04/23 13:06:03;;;;;;;32.07;29.57;;;16.30;62.20;;;;;;5093845;28;20930;-75
2022/04/23 13:11:27;;;;;;;35.73;31.20;;;16.80;61.60;;;;;;5093594;28;21052;-75
2022/04/23 13:13:56;;;;;;;42.20;29.60;;;17.20;60.80;;;;;;5094007;28;20921;-75
2022/04/23 13:16:25;;;;;;;31.17;28.40;;;17.40;59.90;;;;;;5093807;28;20481;-75
2022/04/23 13:18:56;;;;;;;31.53;29.63;;;17.80;59.50;;;;;;5093693;28;20450;-75